Time;durP1;ratioP1;P1;durP2;ratioP2;P2;SDS_P1;SDS_P2;PMS_P1;PMS_P2;Temp;Humidity;BMP_temperature;BMP_pressure;BME280_temperature;BME280_humidity;BME280_pressure;Samples;Min_cycle;Max_cycle;Signal;HPM_P1;HPM_P2
2024/01/13 00:01:44;;;;;;;;;;;;;;;;;;5037572;28;1985;-76
2024/01/13 00:04:10;;;;;;;;;;;;;;;;;;5037798;28;841;-76
2024/01/13 00:06:35;;;;;;;;;;;;;;;;;;5037832;28;824;-77
2024/01/13 00:09:00;;;;;;;;;;;;;;;;;;5037477;28;1007;-77
2024/01/13 00:11:26;;;;;;;;;;;;;;;;;;5019316;28;1264;-77
2024/01/13 00:13:51;;;;;;;;;;;;;;;;;;5037388;28;1297;-78
2024/01/13 00:16:16;;;;;;;;;;;;;;;;;;5037265;28;1042;-77
2024/01/13 00:18:41;;;;;;;;;;;;;;;;;;5037386;28;971;-77
2024/01/13 00:21:07;;;;;;;;;;;;;;;;;;5037180;28;1978;-78
2024/01/13 00:23:33;;;;;;;;;;;;;;;;;;5037382;28;837;-77
2024/01/13 00:25:58;;;;;;;;;;;;;;;;;;5019277;28;1346;-78
2024/01/13 00:28:23;;;;;;;;;;;;;;;;;;5035867;28;911;-71
2024/01/13 00:30:48;;;;;;;;;;;;;;;;;;5036062;28;900;-72
2024/01/13 00:33:14;;;;;;;;;;;;;;;;;;5017874;28;1385;-72
2024/01/13 00:35:39;;;;;;;;;;;;;;;;;;5017485;28;1168;-72
2024/01/13 00:38:04;;;;;;;;;;;;;;;;;;5035884;28;951;-72
2024/01/13 00:40:29;;;;;;;;;;;;;;;;;;5035504;28;1981;-72
2024/01/13 00:42:55;;;;;;;;;;;;;;;;;;5034519;28;911;-72
2024/01/13 00:45:21;;;;;;;;;;;;;;;;;;5035888;28;758;-72
2024/01/13 00:47:46;;;;;;;;;;;;;;;;;;5035757;28;1001;-72
2024/01/13 00:50:11;;;;;;;;;;;;;;;;;;5017905;28;1308;-71
2024/01/13 00:52:37;;;;;;;;;;;;;;;;;;5035863;28;813;-71
2024/01/13 00:55:02;;;;;;;;;;;;;;;;;;5035503;28;947;-71
2024/01/13 00:57:27;;;;;;;;;;;;;;;;;;5034047;28;801;-71
2024/01/13 00:59:52;;;;;;;;;;;;;;;;;;5034620;28;872;-71
2024/01/13 01:02:17;;;;;;;;;;;;;;;;;;5035357;28;1902;-71
2024/01/13 01:04:43;;;;;;;;;;;;;;;;;;5035226;28;1080;-71
2024/01/13 01:07:08;;;;;;;;;;;;;;;;;;5035393;28;884;-71
2024/01/13 01:09:33;;;;;;;;;;;;;;;;;;5035295;28;922;-71
2024/01/13 01:11:58;;;;;;;;;;;;;;;;;;5035944;28;824;-71
2024/01/13 01:14:23;;;;;;;;;;;;;;;;;;5043465;28;927;-71
2024/01/13 01:16:49;;;;;;;;;;;;;;;;;;5049131;28;1043;-71
2024/01/13 01:19:14;;;;;;;;;;;;;;;;;;5036476;28;1503;-72
2024/01/13 01:21:39;;;;;;;;;;;;;;;;;;5053387;28;1867;-71
2024/01/13 01:24:04;;;;;;;;;;;;;;;;;;5051952;28;927;-72
2024/01/13 01:26:30;;;;;;;;;;;;;;;;;;5053547;28;908;-72
2024/01/13 01:28:55;;;;;;;;;;;;;;;;;;5050049;28;1014;-71
2024/01/13 01:31:20;;;;;;;;;;;;;;;;;;5037552;28;896;-71
2024/01/13 01:33:45;;;;;;;;;;;;;;;;;;5038225;28;892;-73
2024/01/13 01:36:10;;;;;;;;;;;;;;;;;;5039751;28;888;-72
2024/01/13 01:38:36;;;;;;;;;;;;;;;;;;5037109;28;1025;-71
2024/01/13 01:41:02;;;;;;;;;;;;;;;;;;5035274;28;1953;-71
2024/01/13 01:43:27;;;;;;;;;;;;;;;;;;5036676;28;880;-71
2024/01/13 01:45:54;;;;;;;;;;;;;;;;;;5036088;28;1209;-71
2024/01/13 01:48:24;;;;;;;;;;;;;;;;;;5018921;28;1169;-71
2024/01/13 01:50:49;;;;;;;;;;;;;;;;;;5036235;28;919;-71
2024/01/13 01:53:15;;;;;;;;;;;;;;;;;;5036390;28;963;-71
2024/01/13 01:55:40;;;;;;;;;;;;;;;;;;5035794;28;904;-72
2024/01/13 01:58:05;;;;;;;;;;;;;;;;;;5035419;28;947;-72
2024/01/13 02:00:32;;;;;;;;;;;;;;;;;;5017546;28;1961;-72
2024/01/13 02:02:57;;;;;;;;;;;;;;;;;;5034699;28;809;-72
2024/01/13 02:05:23;;;;;;;;;;;;;;;;;;5034626;28;921;-73
2024/01/13 02:07:50;;;;;;;;;;;;;;;;;;5035388;28;824;-72
2024/01/13 02:10:16;;;;;;;;;;;;;;;;;;5017167;28;1247;-72
2024/01/13 02:12:41;;;;;;;;;;;;;;;;;;5016187;28;1180;-72
2024/01/13 02:15:07;;;;;;;;;;;;;;;;;;5035180;28;1049;-72
2024/01/13 02:17:32;;;;;;;;;;;;;;;;;;5034640;28;1536;-72
2024/01/13 02:20:00;;;;;;;;;;;;;;;;;;5017139;28;1290;-72
2024/01/13 02:22:25;;;;;;;;;;;;;;;;;;5016691;28;1883;-71
2024/01/13 02:24:51;;;;;;;;;;;;;;;;;;5034770;28;817;-72
2024/01/13 02:27:16;;;;;;;;;;;;;;;;;;5034715;28;750;-71
2024/01/13 02:29:41;;;;;;;;;;;;;;;;;;5016088;28;1263;-72
2024/01/13 02:32:06;;;;;;;;;;;;;;;;;;5016411;28;1290;-72
2024/01/13 02:34:31;;;;;;;;;;;;;;;;;;5033930;28;1002;-72
2024/01/13 02:36:57;;;;;;;;;;;;;;;;;;5016062;28;1181;-71
2024/01/13 02:39:22;;;;;;;;;;;;;;;;;;5033894;28;906;-72
2024/01/13 02:41:47;;;;;;;;;;;;;;;;;;5016422;28;1975;-72
2024/01/13 02:44:13;;;;;;;;;;;;;;;;;;5034304;28;873;-72
2024/01/13 02:46:38;;;;;;;;;;;;;;;;;;5034224;28;879;-71
2024/01/13 02:49:04;;;;;;;;;;;;;;;;;;5033809;28;979;-71
2024/01/13 02:51:29;;;;;;;;;;;;;;;;;;5016759;28;892;-71
2024/01/13 02:53:55;;;;;;;;;;;;;;;;;;5033992;28;939;-71
2024/01/13 02:56:20;;;;;;;;;;;;;;;;;;5016099;28;1232;-71
2024/01/13 02:58:45;;;;;;;;;;;;;;;;;;5016142;28;1205;-73
2024/01/13 03:01:11;;;;;;;;;;;;;;;;;;5016637;28;1902;-72
2024/01/13 03:03:36;;;;;;;;;;;;;;;;;;5016042;28;1268;-73
2024/01/13 03:06:03;;;;;;;;;;;;;;;;;;5034071;28;832;-72
2024/01/13 03:08:28;;;;;;;;;;;;;;;;;;5016119;28;1169;-70
2024/01/13 03:10:53;;;;;;;;;;;;;;;;;;5034277;28;903;-70
2024/01/13 03:13:18;;;;;;;;;;;;;;;;;;5016146;28;1328;-71
2024/01/13 03:15:44;;;;;;;;;;;;;;;;;;5015951;28;1549;-71
2024/01/13 03:18:09;;;;;;;;;;;;;;;;;;5015944;28;1249;-71
2024/01/13 03:20:34;;;;;;;;;;;;;;;;;;5015809;28;1894;-72
2024/01/13 03:22:59;;;;;;;;;;;;;;;;;;5035577;28;935;-71
2024/01/13 03:25:24;;;;;;;;;;;;;;;;;;5037831;28;892;-71
2024/01/13 03:27:50;;;;;;;;;;;;;;;;;;5037833;28;782;-71
2024/01/13 03:30:15;;;;;;;;;;;;;;;;;;5037314;28;872;-71
2024/01/13 03:32:40;;;;;;;;;;;;;;;;;;5019359;28;1303;-72
2024/01/13 03:35:07;;;;;;;;;;;;;;;;;;5038138;28;820;-72
2024/01/13 03:37:33;;;;;;;;;;;;;;;;;;5037572;28;868;-72
2024/01/13 03:39:58;;;;;;;;;;;;;;;;;;5037346;28;912;-72
2024/01/13 03:42:23;;;;;;;;;;;;;;;;;;5018976;28;1902;-72
2024/01/13 03:44:48;;;;;;;;;;;;;;;;;;5019701;28;1286;-72
2024/01/13 03:47:14;;;;;;;;;;;;;;;;;;5037205;28;979;-71
2024/01/13 03:49:39;;;;;;;;;;;;;;;;;;5019059;28;1312;-72
2024/01/13 03:52:04;;;;;;;;;;;;;;;;;;5036569;28;880;-72
2024/01/13 03:54:29;;;;;;;;;;;;;;;;;;5019068;28;1305;-71
2024/01/13 03:56:55;;;;;;;;;;;;;;;;;;5036256;28;1026;-72
2024/01/13 03:59:20;;;;;;;;;;;;;;;;;;5036918;28;896;-72
2024/01/13 04:01:45;;;;;;;;;;;;;;;;;;5018477;28;1898;-71
2024/01/13 04:04:10;;;;;;;;;;;;;;;;;;5018555;28;1242;-71
2024/01/13 04:06:38;;;;;;;;;;;;;;;;;;5036392;28;888;-71
2024/01/13 04:09:03;;;;;;;;;;;;;;;;;;5036664;28;935;-71
2024/01/13 04:11:29;;;;;;;;;;;;;;;;;;5018335;28;1251;-71
2024/01/13 04:13:54;;;;;;;;;;;;;;;;;;5036131;28;793;-71
2024/01/13 04:16:19;;;;;;;;;;;;;;;;;;5018353;28;1268;-71
2024/01/13 04:18:44;;;;;;;;;;;;;;;;;;5036523;28;884;-71
2024/01/13 04:21:09;;;;;;;;;;;;;;;;;;5018370;28;1898;-71
2024/01/13 04:23:35;;;;;;;;;;;;;;;;;;5036423;28;936;-71
2024/01/13 04:26:00;;;;;;;;;;;;;;;;;;5036114;28;881;-71
2024/01/13 04:28:25;;;;;;;;;;;;;;;;;;5018690;28;1162;-70
2024/01/13 04:30:50;;;;;;;;;;;;;;;;;;5036362;28;872;-71
2024/01/13 04:33:15;;;;;;;;;;;;;;;;;;5036029;28;1062;-71
2024/01/13 04:35:41;;;;;;;;;;;;;;;;;;5035635;28;876;-71
2024/01/13 04:38:06;;;;;;;;;;;;;;;;;;5036430;28;891;-71
2024/01/13 04:40:36;;;;;;;;;;;;;;;;;;5035567;28;1898;-71
2024/01/13 04:43:01;;;;;;;;;;;;;;;;;;5035591;28;844;-71
2024/01/13 04:45:27;;;;;;;;;;;;;;;;;;5036079;28;927;-71
2024/01/13 04:47:52;;;;;;;;;;;;;;;;;;5035835;28;1022;-71
2024/01/13 04:50:17;;;;;;;;;;;;;;;;;;5019177;28;1287;-77
2024/01/13 04:52:43;;;;;;;;;;;;;;;;;;5036819;28;1045;-77
2024/01/13 04:55:08;;;;;;;;;;;;;;;;;;5018479;28;1163;-77
2024/01/13 04:57:34;;;;;;;;;;;;;;;;;;5019197;28;1125;-71
2024/01/13 04:59:59;;;;;;;;;;;;;;;;;;5018096;28;1265;-72
2024/01/13 05:02:24;;;;;;;;;;;;;;;;;;5034597;28;1973;-71
2024/01/13 05:04:49;;;;;;;;;;;;;;;;;;5032109;28;1236;-71
2024/01/13 05:07:15;;;;;;;;;;;;;;;;;;5032265;28;1169;-71
2024/01/13 05:09:42;;;;;;;;;;;;;;;;;;5010561;28;1320;-71
2024/01/13 05:12:07;;;;;;;;;;;;;;;;;;5030206;28;1118;-71
2024/01/13 05:14:32;;;;;;;;;;;;;;;;;;5032230;28;1236;-70
2024/01/13 05:16:58;;;;;;;;;;;;;;;;;;5032235;28;1181;-71
2024/01/13 05:19:23;;;;;;;;;;;;;;;;;;5030829;28;1252;-71
2024/01/13 05:21:48;;;;;;;;;;;;;;;;;;5032061;28;1906;-71
2024/01/13 05:24:14;;;;;;;;;;;;;;;;;;5032392;28;1118;-71
2024/01/13 05:26:39;;;;;;;;;;;;;;;;;;5033346;28;1256;-72
2024/01/13 05:29:05;;;;;;;;;;;;;;;;;;5035023;28;829;-71
2024/01/13 05:31:30;;;;;;;;;;;;;;;;;;5034697;28;983;-71
2024/01/13 05:33:55;;;;;;;;;;;;;;;;;;5034687;28;897;-71
2024/01/13 05:36:21;;;;;;;;;;;;;;;;;;5035057;28;774;-71
2024/01/13 05:38:47;;;;;;;;;;;;;;;;;;5034538;28;829;-71
2024/01/13 05:41:12;;;;;;;;;;;;;;;;;;5049918;28;1890;-71
2024/01/13 05:43:37;;;;;;;;;;;;;;;;;;5033894;28;1143;-71
2024/01/13 05:46:02;;;;;;;;;;;;;;;;;;5035045;28;940;-71
2024/01/13 05:48:28;;;;;;;;;;;;;;;;;;5036254;28;1015;-76
2024/01/13 05:50:53;;;;;;;;;;;;;;;;;;5054197;28;1211;-76
2024/01/13 05:53:19;;;;;;;;;;;;;;;;;;5038498;28;1343;-77
2024/01/13 05:55:44;;;;;;;;;;;;;;;;;;5038272;28;915;-76
2024/01/13 05:58:09;;;;;;;;;;;;;;;;;;5039334;28;927;-76
2024/01/13 06:00:34;;;;;;;;;;;;;;;;;;5037968;28;1902;-75
2024/01/13 06:03:00;;;;;;;;;;;;;;;;;;5039126;28;889;-77
2024/01/13 06:05:25;;;;;;;;;;;;;;;;;;5038084;28;869;-77
2024/01/13 06:07:51;;;;;;;;;;;;;;;;;;5037475;28;1226;-76
2024/01/13 06:10:17;;;;;;;;;;;;;;;;;;5038309;28;904;-75
2024/01/13 06:12:43;;;;;;;;;;;;;;;;;;5038278;28;1437;-76
2024/01/13 06:15:09;;;;;;;;;;;;;;;;;;5037224;28;1231;-76
2024/01/13 06:17:34;;;;;;;;;;;;;;;;;;5021417;28;1140;-75
2024/01/13 06:19:59;;;;;;;;;;;;;;;;;;5039402;28;1011;-76
2024/01/13 06:22:24;;;;;;;;;;;;;;;;;;5038088;28;1886;-75
2024/01/13 06:24:49;;;;;;;;;;;;;;;;;;5037495;28;1238;-77
2024/01/13 06:27:15;;;;;;;;;;;;;;;;;;5039198;28;865;-76
2024/01/13 06:29:40;;;;;;;;;;;;;;;;;;5039545;28;947;-76
2024/01/13 06:32:05;;;;;;;;;;;;;;;;;;5039728;28;940;-76
2024/01/13 06:34:30;;;;;;;;;;;;;;;;;;5039384;28;943;-77
2024/01/13 06:36:56;;;;;;;;;;;;;;;;;;5042143;28;1007;-78
2024/01/13 06:39:21;;;;;;;;;;;;;;;;;;5057366;28;1152;-79
2024/01/13 06:41:46;;;;;;;;;;;;;;;;;;5038341;28;1941;-77
2024/01/13 06:44:11;;;;;;;;;;;;;;;;;;5037931;28;888;-77
2024/01/13 06:46:37;;;;;;;;;;;;;;;;;;5034767;28;1359;-72
2024/01/13 06:49:02;;;;;;;;;;;;;;;;;;5034854;28;903;-71
2024/01/13 06:51:28;;;;;;;;;;;;;;;;;;5035283;28;946;-72
2024/01/13 06:53:53;;;;;;;;;;;;;;;;;;5034618;28;991;-72
2024/01/13 06:56:18;;;;;;;;;;;;;;;;;;5034862;28;987;-72
2024/01/13 06:58:43;;;;;;;;;;;;;;;;;;5033608;28;1054;-72
2024/01/13 07:01:12;;;;;;;;;;;;;;;;;;5034737;28;1906;-72
2024/01/13 07:03:37;;;;;;;;;;;;;;;;;;5036339;28;1398;-77
2024/01/13 07:06:03;;;;;;;;;;;;;;;;;;5035773;28;1165;-76
2024/01/13 07:08:29;;;;;;;;;;;;;;;;;;5015269;28;1411;-76
2024/01/13 07:10:54;;;;;;;;;;;;;;;;;;5031288;28;1288;-76
2024/01/13 07:13:20;;;;;;;;;;;;;;;;;;5031194;28;1306;-77
2024/01/13 07:15:45;;;;;;;;;;;;;;;;;;5030933;28;1149;-71
2024/01/13 07:18:11;;;;;;;;;;;;;;;;;;5030397;28;1145;-71
2024/01/13 07:20:36;;;;;;;;;;;;;;;;;;5030337;28;1894;-70
2024/01/13 07:23:01;;;;;;;;;;;;;;;;;;5028954;28;1227;-71
2024/01/13 07:25:30;;;;;;;;;;;;;;;;;;5028028;28;1216;-71
2024/01/13 07:27:55;;;;;;;;;;;;;;;;;;5032444;28;1070;-72
2024/01/13 07:30:20;;;;;;;;;;;;;;;;;;5048629;28;852;-71
2024/01/13 07:32:45;;;;;;;;;;;;;;;;;;5048085;28;1180;-71
2024/01/13 07:35:10;;;;;;;;;;;;;;;;;;5033165;28;829;-71
2024/01/13 07:37:36;;;;;;;;;;;;;;;;;;5031684;28;1171;-71
2024/01/13 07:40:02;;;;;;;;;;;;;;;;;;5031403;28;1312;-71
2024/01/13 07:42:27;;;;;;;;;;;;;;;;;;5033315;28;1959;-70
2024/01/13 07:44:53;;;;;;;;;;;;;;;;;;5031914;28;1574;-71
2024/01/13 07:47:18;;;;;;;;;;;;;;;;;;5033223;28;896;-71
2024/01/13 07:49:43;;;;;;;;;;;;;;;;;;5032917;28;983;-71
2024/01/13 07:52:08;;;;;;;;;;;;;;;;;;5033208;28;825;-71
2024/01/13 07:54:34;;;;;;;;;;;;;;;;;;5031898;28;1349;-70
2024/01/13 07:56:59;;;;;;;;;;;;;;;;;;5032790;28;1057;-71
2024/01/13 07:59:24;;;;;;;;;;;;;;;;;;5033109;28;904;-71
2024/01/13 08:01:50;;;;;;;;;;;;;;;;;;5033841;28;1906;-71
2024/01/13 08:04:15;;;;;;;;;;;;;;;;;;5029702;28;1319;-71
2024/01/13 08:06:41;;;;;;;;;;;;;;;;;;5030008;28;1157;-72
2024/01/13 08:09:06;;;;;;;;;;;;;;;;;;5029993;28;1244;-72
2024/01/13 08:11:31;;;;;;;;;;;;;;;;;;5035445;28;1166;-72
2024/01/13 08:13:57;;;;;;;;;;;;;;;;;;5035862;28;1002;-72
2024/01/13 08:16:22;;;;;;;;;;;;;;;;;;5036701;28;948;-72
2024/01/13 08:18:47;;;;;;;;;;;;;;;;;;5036563;28;876;-72
2024/01/13 08:21:13;;;;;;;;;;;;;;;;;;5051746;28;1949;-72
2024/01/13 08:23:38;;;;;;;;;;;;;;;;;;5036352;28;994;-74
2024/01/13 08:26:04;;;;;;;;;;;;;;;;;;5036797;28;810;-73
2024/01/13 08:28:29;;;;;;;;;;;;;;;;;;5036570;28;841;-74
2024/01/13 08:30:54;;;;;;;;;;;;;;;;;;5035942;28;1330;-73
2024/01/13 08:33:19;;;;;;;;;;;;;;;;;;5036599;28;983;-73
2024/01/13 08:35:45;;;;;;;;;;;;;;;;;;5051904;28;1355;-74
2024/01/13 08:38:11;;;;;;;;;;;;;;;;;;5036804;28;876;-73
2024/01/13 08:40:36;;;;;;;;;;;;;;;;;;5051925;28;1292;-74
2024/01/13 08:43:03;;;;;;;;;;;;;;;;;;5036295;28;1930;-73
2024/01/13 08:45:31;;;;;;;;;;;;;;;;;;5036304;28;816;-75
2024/01/13 08:47:57;;;;;;;;;;;;;;;;;;5036074;28;896;-75
2024/01/13 08:50:22;;;;;;;;;;;;;;;;;;5036134;28;872;-74
2024/01/13 08:52:51;;;;;;;;;;;;;;;;;;5034857;28;1153;-73
2024/01/13 08:55:16;;;;;;;;;;;;;;;;;;5035928;28;1085;-73
2024/01/13 08:57:42;;;;;;;;;;;;;;;;;;5034914;28;1172;-74
2024/01/13 09:00:08;;;;;;;;;;;;;;;;;;5035804;28;884;-74
2024/01/13 09:02:33;;;;;;;;;;;;;;;;;;5034328;28;1902;-74
2024/01/13 09:04:58;;;;;;;;;;;;;;;;;;5034758;28;1204;-74
2024/01/13 09:07:24;;;;;;;;;;;;;;;;;;5033152;28;1173;-75
2024/01/13 09:09:49;;;;;;;;;;;;;;;;;;5033349;28;1388;-74
2024/01/13 09:12:14;;;;;;;;;;;;;;;;;;5032213;28;1166;-74
2024/01/13 09:14:39;;;;;;;;;;;;;;;;;;5015376;28;1283;-74
2024/01/13 09:17:05;;;;;;;;;;;;;;;;;;5015418;28;1276;-72
2024/01/13 09:19:30;;;;;;;;;;;;;;;;;;5031628;28;1432;-73
2024/01/13 09:21:55;;;;;;;;;;;;;;;;;;5014495;28;1890;-73
2024/01/13 09:24:20;;;;;;;;;;;;;;;;;;5031613;28;1170;-75
2024/01/13 09:26:46;;;;;;;;;;;;;;;;;;5014269;28;1197;-75
2024/01/13 09:29:12;;;;;;;;;;;;;;;;;;5035517;28;934;-74
2024/01/13 09:31:37;;;;;;;;;;;;;;;;;;5035122;28;843;-75
2024/01/13 09:34:02;;;;;;;;;;;;;;;;;;5034998;28;809;-75
2024/01/13 09:36:27;;;;;;;;;;;;;;;;;;5050136;28;1357;-74
2024/01/13 09:38:53;;;;;;;;;;;;;;;;;;5034993;28;1138;-75
2024/01/13 09:41:18;;;;;;;;;;;;;;;;;;5035307;28;2304;-74
2024/01/13 09:43:52;;;;;;;;;;;;;;;;;;5033587;28;1160;-74
2024/01/13 09:46:17;;;;;;;;;;;;;;;;;;5035502;28;931;-74
2024/01/13 09:48:45;;;;;;;;;;;;;;;;;;5035059;28;891;-74
2024/01/13 09:51:10;;;;;;;;;;;;;;;;;;5033642;28;1302;-74
2024/01/13 09:53:40;;;;;;;;;;;;;;;;;;5033616;28;1144;-74
2024/01/13 09:56:19;;;;;;;;;;;;;;;;;;5033802;28;1177;-75
2024/01/13 09:58:44;;;;;;;;;;;;;;;;;;5033834;28;1216;-75
2024/01/13 10:01:09;;;;;;;;;;;;;;;;;;5034923;28;1915;-75
2024/01/13 10:03:35;;;;;;;;;;;;;;;;;;5033241;28;1172;-75
2024/01/13 10:06:00;;;;;;;;;;;;;;;;;;5033886;28;1200;-75
2024/01/13 10:08:30;;;;;;;;;;;;;;;;;;5034246;28;1456;-75
2024/01/13 10:10:55;;;;;;;;;;;;;;;;;;5033530;28;895;-74
2024/01/13 10:13:20;;;;;;;;;;;;;;;;;;5035045;28;923;-74
2024/01/13 10:15:46;;;;;;;;;;;;;;;;;;5049182;28;1547;-74
2024/01/13 10:18:11;;;;;;;;;;;;;;;;;;5034622;28;994;-75
2024/01/13 10:20:36;;;;;;;;;;;;;;;;;;5033848;28;1386;-73
2024/01/13 10:23:01;;;;;;;;;;;;;;;;;;5033169;28;1906;-73
2024/01/13 10:25:26;;;;;;;;;;;;;;;;;;5034895;28;780;-73
2024/01/13 10:27:52;;;;;;;;;;;;;;;;;;5034647;28;1362;-75
2024/01/13 10:30:17;;;;;;;;;;;;;;;;;;5035524;28;923;-74
2024/01/13 10:32:42;;;;;;;;;;;;;;;;;;5032858;28;1295;-75
2024/01/13 10:35:08;;;;;;;;;;;;;;;;;;5034536;28;852;-75
2024/01/13 10:37:34;;;;;;;;;;;;;;;;;;5034166;28;890;-75
2024/01/13 10:39:59;;;;;;;;;;;;;;;;;;5033555;28;1260;-75
2024/01/13 10:42:26;;;;;;;;;;;;;;;;;;5049054;28;1968;-75
2024/01/13 10:44:57;;;;;;;;;;;;;;;;;;5034373;28;839;-75
2024/01/13 10:47:33;;;;;;;;;;;;;;;;;;5032393;28;1295;-76
2024/01/13 10:49:58;;;;;;;;;;;;;;;;;;5034029;28;839;-75
2024/01/13 10:52:29;;;;;;;;;;;;;;;;;;5033917;28;923;-75
2024/01/13 10:54:57;;;;;;;;;;;;;;;;;;5048756;28;1104;-75
2024/01/13 10:57:23;;;;;;;;;;;;;;;;;;5032281;28;1168;-75
2024/01/13 10:59:50;;;;;;;;;;;;;;;;;;5032130;28;1178;-75
2024/01/13 11:02:16;;;;;;;;;;;;;;;;;;5033378;28;1894;-75
2024/01/13 11:04:44;;;;;;;;;;;;;;;;;;5034041;28;777;-75
2024/01/13 11:07:09;;;;;;;;;;;;;;;;;;5030856;28;1254;-76
2024/01/13 11:09:35;;;;;;;;;;;;;;;;;;4993343;28;1284;-77
2024/01/13 11:12:00;;;;;;;;;;;;;;;;;;5024938;28;1245;-76
2024/01/13 11:14:28;;;;;;;;;;;;;;;;;;5028307;28;1177;-76
2024/01/13 11:16:54;;;;;;;;;;;;;;;;;;5030799;28;1271;-77
2024/01/13 11:19:20;;;;;;;;;;;;;;;;;;5032425;28;1299;-76
2024/01/13 11:21:48;;;;;;;;;;;;;;;;;;5015800;28;1953;-76
2024/01/13 11:24:14;;;;;;;;;;;;;;;;;;5033465;28;813;-76
2024/01/13 11:26:43;;;;;;;;;;;;;;;;;;5016000;28;1363;-76
2024/01/13 11:29:18;;;;;;;;;;;;;;;;;;5033031;28;849;-76
2024/01/13 11:31:45;;;;;;;;;;;;;;;;;;5033197;28;909;-76
2024/01/13 11:34:11;;;;;;;;;;;;;;;;;;5033150;28;841;-75
2024/01/13 11:36:41;;;;;;;;;;;;;;;;;;5015138;28;1413;-76
2024/01/13 11:39:07;;;;;;;;;;;;;;;;;;5033343;28;856;-75
2024/01/13 11:41:42;;;;;;;;;;;;;;;;;;5032973;28;1973;-76
2024/01/13 11:44:08;;;;;;;;;;;;;;;;;;5033960;28;1461;-75
2024/01/13 11:46:38;;;;;;;;;;;;;;;;;;5037590;28;877;-76
2024/01/13 11:49:03;;;;;;;;;;;;;;;;;;5036445;28;896;-72
2024/01/13 11:52:04;;;;;;;;;;;;;;;;;;5037310;28;762;-72
2024/01/13 11:54:30;;;;;;;;;;;;;;;;;;4994599;28;1380;-72
2024/01/13 11:57:00;;;;;;;;;;;;;;;;;;4978510;28;1154;-72
2024/01/13 11:59:25;;;;;;;;;;;;;;;;;;4978346;28;1203;-72
2024/01/13 12:01:53;;;;;;;;;;;;;;;;;;4994790;28;1898;-72
2024/01/13 12:04:18;;;;;;;;;;;;;;;;;;4995364;28;971;-72
2024/01/13 12:06:44;;;;;;;;;;;;;;;;;;4995328;28;990;-75
2024/01/13 12:09:11;;;;;;;;;;;;;;;;;;4977287;28;1314;-71
2024/01/13 12:11:36;;;;;;;;;;;;;;;;;;4992152;28;1229;-71
2024/01/13 12:14:03;;;;;;;;;;;;;;;;;;4992364;28;1193;-71
2024/01/13 12:16:28;;;;;;;;;;;;;;;;;;4992168;28;1260;-72
2024/01/13 12:18:54;;;;;;;;;;;;;;;;;;4991988;28;1186;-72
2024/01/13 12:21:19;;;;;;;;;;;;;;;;;;4976030;28;1902;-72
2024/01/13 12:23:45;;;;;;;;;;;;;;;;;;4976020;28;1286;-72
2024/01/13 12:26:10;;;;;;;;;;;;;;;;;;4991814;28;1198;-72
2024/01/13 12:28:36;;;;;;;;;;;;;;;;;;5006078;28;1388;-72
2024/01/13 12:31:04;;;;;;;;;;;;;;;;;;4998823;28;1262;-71
2024/01/13 12:33:30;;;;;;;;;;;;;;;;;;4999037;28;1284;-72
2024/01/13 12:35:59;;;;;;;;;;;;;;;;;;5014887;28;1168;-72
2024/01/13 12:38:25;;;;;;;;;;;;;;;;;;5016650;28;883;-72
2024/01/13 12:40:52;;;;;;;;;;;;;;;;;;5016545;28;1954;-72
2024/01/13 12:43:18;;;;;;;;;;;;;;;;;;5014805;28;1292;-71
2024/01/13 12:45:44;;;;;;;;;;;;;;;;;;5014929;28;1225;-72
2024/01/13 12:48:09;;;;;;;;;;;;;;;;;;5015128;28;1244;-72
2024/01/13 12:50:34;;;;;;;;;;;;;;;;;;5016725;28;1015;-71
2024/01/13 12:52:59;;;;;;;;;;;;;;;;;;5016162;28;950;-72
2024/01/13 12:55:25;;;;;;;;;;;;;;;;;;5013240;28;1404;-73
2024/01/13 12:57:50;;;;;;;;;;;;;;;;;;5016187;28;651;-73
2024/01/13 13:00:17;;;;;;;;;;;;;;;;;;4998223;28;1145;-73
2024/01/13 13:02:43;;;;;;;;;;;;;;;;;;5015795;28;1973;-72
2024/01/13 13:05:08;;;;;;;;;;;;;;;;;;5015896;28;844;-72
2024/01/13 13:07:33;;;;;;;;;;;;;;;;;;5015737;28;884;-72
2024/01/13 13:09:59;;;;;;;;;;;;;;;;;;5023785;28;1240;-72
2024/01/13 13:12:24;;;;;;;;;;;;;;;;;;5032079;28;1169;-73
2024/01/13 13:14:49;;;;;;;;;;;;;;;;;;5032527;28;1166;-73
2024/01/13 13:17:15;;;;;;;;;;;;;;;;;;5032195;28;1121;-73
2024/01/13 13:19:40;;;;;;;;;;;;;;;;;;5014367;28;1732;-73
2024/01/13 13:22:06;;;;;;;;;;;;;;;;;;5013919;28;1964;-73
2024/01/13 13:24:31;;;;;;;;;;;;;;;;;;5032734;28;1134;-70
2024/01/13 13:26:56;;;;;;;;;;;;;;;;;;5031535;28;1406;-72
2024/01/13 13:29:22;;;;;;;;;;;;;;;;;;5034321;28;983;-71
2024/01/13 13:31:47;;;;;;;;;;;;;;;;;;5017141;28;1201;-72
2024/01/13 13:34:12;;;;;;;;;;;;;;;;;;5016951;28;1157;-71
2024/01/13 13:36:38;;;;;;;;;;;;;;;;;;5016984;28;1270;-72
2024/01/13 13:39:05;;;;;;;;;;;;;;;;;;5034927;28;774;-76
2024/01/13 13:41:30;;;;;;;;;;;;;;;;;;5016952;28;1906;-76
2024/01/13 13:43:55;;;;;;;;;;;;;;;;;;5017493;28;1237;-76
2024/01/13 13:46:21;;;;;;;;;;;;;;;;;;5017044;28;1165;-76
2024/01/13 13:48:46;;;;;;;;;;;;;;;;;;5034909;28;1232;-76
2024/01/13 13:51:12;;;;;;;;;;;;;;;;;;5033362;28;1145;-76
2024/01/13 13:53:37;;;;;;;;;;;;;;;;;;5017836;28;1217;-72
2024/01/13 13:56:03;;;;;;;;;;;;;;;;;;5034533;28;1130;-71
2024/01/13 13:58:28;;;;;;;;;;;;;;;;;;5035347;28;860;-76
2024/01/13 14:00:53;;;;;;;;;;;;;;;;;;5017229;28;1968;-76
2024/01/13 14:03:19;;;;;;;;;;;;;;;;;;5035171;28;857;-76
2024/01/13 14:05:45;;;;;;;;;;;;;;;;;;5016847;28;1279;-76
2024/01/13 14:08:10;;;;;;;;;;;;;;;;;;5035051;28;887;-76
2024/01/13 14:10:36;;;;;;;;;;;;;;;;;;5034050;28;1235;-75
2024/01/13 14:13:01;;;;;;;;;;;;;;;;;;5032039;28;1209;-76
2024/01/13 14:15:28;;;;;;;;;;;;;;;;;;5031048;28;1225;-76
2024/01/13 14:17:53;;;;;;;;;;;;;;;;;;5031778;28;1158;-76
2024/01/13 14:20:18;;;;;;;;;;;;;;;;;;5031425;28;1157;-76
2024/01/13 14:22:44;;;;;;;;;;;;;;;;;;5031293;28;1968;-76
2024/01/13 14:25:09;;;;;;;;;;;;;;;;;;5031656;28;1283;-76
2024/01/13 14:27:34;;;;;;;;;;;;;;;;;;5032402;28;1129;-76
2024/01/13 14:30:00;;;;;;;;;;;;;;;;;;5034238;28;821;-73
2024/01/13 14:32:25;;;;;;;;;;;;;;;;;;5032609;28;1206;-73
2024/01/13 14:34:50;;;;;;;;;;;;;;;;;;5032319;28;1279;-73
2024/01/13 14:37:15;;;;;;;;;;;;;;;;;;5033443;28;825;-72
2024/01/13 14:39:41;;;;;;;;;;;;;;;;;;5033537;28;845;-73
2024/01/13 14:42:07;;;;;;;;;;;;;;;;;;5032891;28;1961;-72
2024/01/13 14:44:32;;;;;;;;;;;;;;;;;;5032404;28;1467;-72
2024/01/13 14:46:57;;;;;;;;;;;;;;;;;;5033327;28;931;-72
2024/01/13 14:49:22;;;;;;;;;;;;;;;;;;5032378;28;1283;-72
2024/01/13 14:51:48;;;;;;;;;;;;;;;;;;5033687;28;908;-73
2024/01/13 14:54:13;;;;;;;;;;;;;;;;;;5033668;28;900;-72
2024/01/13 14:56:38;;;;;;;;;;;;;;;;;;5048607;28;1331;-73
2024/01/13 14:59:03;;;;;;;;;;;;;;;;;;5048603;28;1144;-72
2024/01/13 15:01:29;;;;;;;;;;;;;;;;;;5033587;28;1946;-72
2024/01/13 15:03:54;;;;;;;;;;;;;;;;;;5033112;28;884;-73
2024/01/13 15:06:19;;;;;;;;;;;;;;;;;;5033618;28;1054;-73
2024/01/13 15:08:44;;;;;;;;;;;;;;;;;;5032285;28;1192;-72
2024/01/13 15:11:09;;;;;;;;;;;;;;;;;;5048076;28;1331;-72
2024/01/13 15:13:35;;;;;;;;;;;;;;;;;;5030120;28;1177;-73
2024/01/13 15:16:00;;;;;;;;;;;;;;;;;;5030149;28;1339;-73
2024/01/13 15:18:25;;;;;;;;;;;;;;;;;;5015419;28;1264;-73
2024/01/13 15:20:51;;;;;;;;;;;;;;;;;;5036933;28;1638;-73
2024/01/13 15:23:16;;;;;;;;;;;;;;;;;;5021468;28;1968;-73
2024/01/13 15:25:41;;;;;;;;;;;;;;;;;;5039166;28;916;-73
2024/01/13 15:28:07;;;;;;;;;;;;;;;;;;5021505;28;1385;-73
2024/01/13 15:30:33;;;;;;;;;;;;;;;;;;5039628;28;876;-73
2024/01/13 15:32:58;;;;;;;;;;;;;;;;;;5039608;28;911;-72
2024/01/13 15:35:23;;;;;;;;;;;;;;;;;;5021508;28;1377;-72
2024/01/13 15:37:49;;;;;;;;;;;;;;;;;;5039376;28;821;-73
2024/01/13 15:40:17;;;;;;;;;;;;;;;;;;5040368;28;716;-72
2024/01/13 15:42:43;;;;;;;;;;;;;;;;;;5037803;28;1894;-72
2024/01/13 15:45:09;;;;;;;;;;;;;;;;;;5039700;28;781;-72
2024/01/13 15:47:35;;;;;;;;;;;;;;;;;;5021293;28;1162;-71
2024/01/13 15:50:00;;;;;;;;;;;;;;;;;;5039651;28;1006;-72
2024/01/13 15:52:25;;;;;;;;;;;;;;;;;;5040115;28;893;-72
2024/01/13 15:54:50;;;;;;;;;;;;;;;;;;5039493;28;1016;-72
2024/01/13 15:57:16;;;;;;;;;;;;;;;;;;5021628;28;1192;-71
2024/01/13 15:59:41;;;;;;;;;;;;;;;;;;5022096;28;1318;-72
2024/01/13 16:02:06;;;;;;;;;;;;;;;;;;5039665;28;1910;-72
2024/01/13 16:04:33;;;;;;;;;;;;;;;;;;5021406;28;1446;-72
2024/01/13 16:06:59;;;;;;;;;;;;;;;;;;5040150;28;781;-72
2024/01/13 16:09:24;;;;;;;;;;;;;;;;;;5039864;28;872;-71
2024/01/13 16:11:49;;;;;;;;;;;;;;;;;;5021826;28;1252;-72
2024/01/13 16:14:14;;;;;;;;;;;;;;;;;;5037262;28;1149;-77
2024/01/13 16:16:40;;;;;;;;;;;;;;;;;;5037955;28;1169;-77
2024/01/13 16:19:05;;;;;;;;;;;;;;;;;;5019376;28;1229;-76
2024/01/13 16:21:30;;;;;;;;;;;;;;;;;;5034526;28;1956;-76
2024/01/13 16:23:55;;;;;;;;;;;;;;;;;;5037344;28;1233;-71
2024/01/13 16:26:20;;;;;;;;;;;;;;;;;;5018980;28;1178;-71
2024/01/13 16:28:46;;;;;;;;;;;;;;;;;;5038507;28;1204;-72
2024/01/13 16:31:11;;;;;;;;;;;;;;;;;;5035387;28;758;-72
2024/01/13 16:33:37;;;;;;;;;;;;;;;;;;5036560;28;872;-72
2024/01/13 16:36:04;;;;;;;;;;;;;;;;;;5035053;28;1331;-73
2024/01/13 16:38:29;;;;;;;;;;;;;;;;;;5036301;28;903;-72
2024/01/13 16:40:55;;;;;;;;;;;;;;;;;;5037026;28;952;-72
2024/01/13 16:43:20;;;;;;;;;;;;;;;;;;5035916;28;1895;-72
2024/01/13 16:45:46;;;;;;;;;;;;;;;;;;5036137;28;872;-72
2024/01/13 16:48:11;;;;;;;;;;;;;;;;;;5034614;28;1164;-72
2024/01/13 16:50:37;;;;;;;;;;;;;;;;;;5036100;28;876;-72
2024/01/13 16:53:02;;;;;;;;;;;;;;;;;;5035533;28;991;-72
2024/01/13 16:55:27;;;;;;;;;;;;;;;;;;5035568;28;1189;-72
2024/01/13 16:57:52;;;;;;;;;;;;;;;;;;5035684;28;824;-73
2024/01/13 17:00:19;;;;;;;;;;;;;;;;;;5034552;28;1155;-73